createdAt,value
2017-05-18T00:00:06.585Z,0
2017-05-18T00:00:16.677Z,0
2017-05-18T00:00:26.480Z,0
2017-05-18T00:00:36.572Z,0
2017-05-18T00:00:46.728Z,0
2017-05-18T00:00:56.825Z,0
2017-05-18T00:01:06.920Z,0
2017-05-18T00:01:17.026Z,0
2017-05-18T00:01:26.840Z,0
2017-05-18T00:01:36.940Z,0
2017-05-18T00:01:47.030Z,0
2017-05-18T00:01:57.124Z,0
2017-05-18T00:02:07.213Z,0
2017-05-18T00:02:16.736Z,0
2017-05-18T00:02:26.539Z,0
2017-05-18T00:02:36.400Z,0
2017-05-18T00:02:46.505Z,0
2017-05-18T00:02:56.598Z,0
2017-05-18T00:03:06.408Z,0
2017-05-18T00:03:16.211Z,0
2017-05-18T00:03:26.302Z,0
2017-05-18T00:03:36.398Z,0
2017-05-18T00:03:46.499Z,0
2017-05-18T00:03:56.591Z,0
2017-05-18T00:04:06.406Z,0
2017-05-18T00:04:16.208Z,0
2017-05-18T00:04:26.300Z,0
2017-05-18T00:04:36.408Z,0
2017-05-18T00:04:46.498Z,0
2017-05-18T00:04:56.588Z,0
2017-05-18T00:05:06.683Z,0
2017-05-18T00:05:16.488Z,0
2017-05-18T00:05:26.574Z,0
2017-05-18T00:05:36.661Z,0
2017-05-18T00:05:46.755Z,0
2017-05-18T00:05:56.849Z,0
2017-05-18T00:06:06.945Z,0
2017-05-18T00:06:17.031Z,0
2017-05-18T00:06:27.179Z,1.56
2017-05-18T00:06:37.271Z,0
2017-05-18T00:06:47.364Z,0
2017-05-18T00:06:57.173Z,0
2017-05-18T00:07:07.268Z,0
2017-05-18T00:07:17.078Z,0
2017-05-18T00:07:27.171Z,0
2017-05-18T00:07:37.271Z,0
2017-05-18T00:07:47.376Z,0
2017-05-18T00:07:57.477Z,0
2017-05-18T00:08:07.573Z,0
2017-05-18T00:08:17.388Z,0
2017-05-18T00:08:27.488Z,0
2017-05-18T00:08:37.589Z,0
2017-05-18T00:08:47.751Z,0
2017-05-18T00:08:57.859Z,0
2017-05-18T00:09:07.956Z,0
2017-05-18T00:09:17.754Z,3.12
2017-05-18T00:09:27.564Z,0
2017-05-18T00:09:37.663Z,0
2017-05-18T00:09:47.753Z,0
2017-05-18T00:09:57.851Z,0
2017-05-18T00:10:07.661Z,0
2017-05-18T00:10:17.761Z,0
2017-05-18T00:10:27.861Z,0
2017-05-18T00:10:37.954Z,0
2017-05-18T00:10:48.051Z,0
2017-05-18T00:10:58.147Z,0
2017-05-18T00:11:08.239Z,0
2017-05-18T00:11:18.040Z,0
2017-05-18T00:11:27.844Z,50
2017-05-18T00:11:37.944Z,0
2017-05-18T00:11:48.041Z,0
2017-05-18T00:11:58.135Z,0
2017-05-18T00:12:07.652Z,0
2017-05-18T00:12:17.741Z,0
2017-05-18T00:12:27.838Z,0
2017-05-18T00:12:37.987Z,0
2017-05-18T00:12:48.083Z,0
2017-05-18T00:12:57.954Z,1.56
2017-05-18T00:13:08.057Z,0
2017-05-18T00:13:18.156Z,0
2017-05-18T00:13:27.967Z,0
2017-05-18T00:13:38.072Z,0
2017-05-18T00:13:48.168Z,0
2017-05-18T00:13:57.973Z,0
2017-05-18T00:14:07.783Z,0
2017-05-18T00:14:17.307Z,25
2017-05-18T00:14:27.405Z,0
2017-05-18T00:14:37.504Z,0
2017-05-18T00:14:47.595Z,0
2017-05-18T00:14:57.413Z,1.56
2017-05-18T00:15:07.581Z,0
2017-05-18T00:15:17.381Z,0
2017-05-18T00:15:27.478Z,0
2017-05-18T00:15:37.575Z,0
2017-05-18T00:15:47.380Z,0.01
2017-05-18T00:15:57.190Z,0
2017-05-18T00:16:07.286Z,0
2017-05-18T00:16:16.802Z,0
2017-05-18T00:16:26.603Z,0
2017-05-18T00:16:36.699Z,0
2017-05-18T00:16:46.799Z,0
2017-05-18T00:16:56.887Z,0
2017-05-18T00:17:06.979Z,0
2017-05-18T00:17:16.787Z,0
2017-05-18T00:17:26.883Z,0.78
2017-05-18T00:17:37.003Z,0.39
2017-05-18T00:17:47.102Z,0
2017-05-18T00:17:57.205Z,0
2017-05-18T00:18:07.304Z,0
2017-05-18T00:18:16.822Z,0
2017-05-18T00:18:26.916Z,0
2017-05-18T00:18:37.018Z,0
2017-05-18T00:18:47.183Z,0
2017-05-18T00:18:57.278Z,0
2017-05-18T00:19:07.383Z,0
2017-05-18T00:19:17.476Z,0
2017-05-18T00:19:27.281Z,0
2017-05-18T00:19:37.373Z,0
2017-05-18T00:19:47.472Z,0
2017-05-18T00:19:57.574Z,0
2017-05-18T00:20:07.378Z,0
2017-05-18T00:20:16.895Z,0
2017-05-18T00:20:26.988Z,0
2017-05-18T00:20:37.076Z,0
2017-05-18T00:20:46.886Z,0
2017-05-18T00:20:56.983Z,0
2017-05-18T00:21:07.076Z,0
2017-05-18T00:21:16.593Z,0
2017-05-18T00:21:26.403Z,0.19
2017-05-18T00:21:36.496Z,0
2017-05-18T00:21:46.591Z,0
2017-05-18T00:21:56.680Z,0
2017-05-18T00:22:06.775Z,0
2017-05-18T00:22:16.580Z,0
2017-05-18T00:22:26.670Z,0
2017-05-18T00:22:36.759Z,0
2017-05-18T00:22:46.852Z,0
2017-05-18T00:22:56.953Z,0
2017-05-18T00:23:07.049Z,0
2017-05-18T00:23:16.862Z,0
2017-05-18T00:23:26.957Z,3.12
2017-05-18T00:23:36.476Z,0
2017-05-18T00:23:46.303Z,12.5
2017-05-18T00:23:56.393Z,0
2017-05-18T00:24:06.488Z,0
2017-05-18T00:24:16.586Z,0
2017-05-18T00:24:26.387Z,6.25
2017-05-18T00:24:36.201Z,0
2017-05-18T00:24:46.308Z,0
2017-05-18T00:24:56.404Z,0
2017-05-18T00:25:06.496Z,0
2017-05-18T00:25:16.595Z,0
2017-05-18T00:25:26.106Z,0
2017-05-18T00:25:36.199Z,0
2017-05-18T00:25:46.292Z,0
2017-05-18T00:25:56.395Z,0
2017-05-18T00:26:06.485Z,0
2017-05-18T00:26:16.575Z,0
2017-05-18T00:26:26.381Z,0
2017-05-18T00:26:36.189Z,0
2017-05-18T00:26:46.281Z,0
2017-05-18T00:26:56.374Z,0
2017-05-18T00:27:06.188Z,0
2017-05-18T00:27:15.995Z,0
2017-05-18T00:27:25.804Z,0
2017-05-18T00:27:35.894Z,0
2017-05-18T00:27:45.995Z,0
2017-05-18T00:27:56.085Z,0
2017-05-18T00:28:06.182Z,0
2017-05-18T00:28:16.276Z,0
2017-05-18T00:28:26.378Z,0
2017-05-18T00:28:36.487Z,0.78
2017-05-18T00:28:46.581Z,0
2017-05-18T00:28:56.704Z,0.19
2017-05-18T00:29:06.564Z,0
2017-05-18T00:29:16.671Z,0
2017-05-18T00:29:26.763Z,0
2017-05-18T00:29:36.572Z,0
2017-05-18T00:29:46.665Z,0
2017-05-18T00:29:56.757Z,0
2017-05-18T00:30:06.855Z,0
2017-05-18T00:30:16.657Z,0
2017-05-18T00:30:26.747Z,0
2017-05-18T00:30:36.840Z,0
2017-05-18T00:30:46.942Z,0
2017-05-18T00:30:57.034Z,0
2017-05-18T00:31:06.841Z,0
2017-05-18T00:31:16.646Z,0
2017-05-18T00:31:26.746Z,0
2017-05-18T00:31:36.850Z,0
2017-05-18T00:31:46.945Z,0
2017-05-18T00:31:56.751Z,0
2017-05-18T00:32:06.849Z,0
2017-05-18T00:32:16.666Z,0
2017-05-18T00:32:26.761Z,0
2017-05-18T00:32:36.850Z,0
2017-05-18T00:32:46.946Z,0
2017-05-18T00:32:57.054Z,0
2017-05-18T00:33:07.143Z,0
2017-05-18T00:33:17.239Z,0
2017-05-18T00:33:27.333Z,0
2017-05-18T00:33:37.426Z,0
2017-05-18T00:33:46.943Z,0
2017-05-18T00:33:56.475Z,0.39
2017-05-18T00:34:06.573Z,0
2017-05-18T00:34:16.669Z,0
2017-05-18T00:34:26.761Z,0
2017-05-18T00:34:36.570Z,0
2017-05-18T00:34:46.661Z,0.39
2017-05-18T00:34:56.759Z,0
2017-05-18T00:35:06.866Z,0
2017-05-18T00:35:16.666Z,12.5
2017-05-18T00:35:26.484Z,0
2017-05-18T00:35:36.575Z,0.02
2017-05-18T00:35:46.672Z,0
2017-05-18T00:35:56.761Z,0
2017-05-18T00:36:06.852Z,0
2017-05-18T00:36:16.369Z,0
2017-05-18T00:36:26.472Z,0
2017-05-18T00:36:35.990Z,0
2017-05-18T00:36:46.089Z,0.39
2017-05-18T00:36:56.190Z,0
2017-05-18T00:37:06.290Z,6.25
2017-05-18T00:37:16.381Z,0
2017-05-18T00:37:26.193Z,0
2017-05-18T00:37:35.999Z,0
2017-05-18T00:37:46.103Z,0
2017-05-18T00:37:56.207Z,0
2017-05-18T00:38:06.302Z,0.39
2017-05-18T00:38:16.394Z,0
2017-05-18T00:38:26.199Z,0
2017-05-18T00:38:36.290Z,0
2017-05-18T00:38:46.380Z,0
2017-05-18T00:38:56.473Z,0
2017-05-18T00:39:06.575Z,0
2017-05-18T00:39:16.726Z,0
2017-05-18T00:39:26.529Z,0
2017-05-18T00:39:36.613Z,0
2017-05-18T00:39:46.705Z,0
2017-05-18T00:39:56.801Z,0
2017-05-18T00:40:06.900Z,0
2017-05-18T00:40:16.996Z,0
2017-05-18T00:40:26.801Z,0
2017-05-18T00:40:36.883Z,0
2017-05-18T00:40:46.973Z,0
2017-05-18T00:40:57.069Z,6.25
2017-05-18T00:41:07.165Z,0
2017-05-18T00:41:16.970Z,0
2017-05-18T00:41:27.063Z,0
2017-05-18T00:41:37.163Z,100
2017-05-18T00:41:47.249Z,0
2017-05-18T00:41:57.341Z,0
2017-05-18T00:42:07.440Z,0.78
2017-05-18T00:42:17.240Z,0
2017-05-18T00:42:27.330Z,25
2017-05-18T00:42:37.429Z,0
2017-05-18T00:42:47.529Z,0
2017-05-18T00:42:57.624Z,0
2017-05-18T00:43:07.434Z,0
2017-05-18T00:43:16.952Z,0
2017-05-18T00:43:26.764Z,0
2017-05-18T00:43:36.576Z,0
2017-05-18T00:43:46.673Z,0
2017-05-18T00:43:56.765Z,0
2017-05-18T00:44:06.862Z,0
2017-05-18T00:44:16.671Z,0
2017-05-18T00:44:26.770Z,12.5
2017-05-18T00:44:36.862Z,0
2017-05-18T00:44:46.962Z,0
2017-05-18T00:44:57.059Z,0
2017-05-18T00:45:07.149Z,0
2017-05-18T00:45:16.953Z,0
2017-05-18T00:45:27.056Z,0
2017-05-18T00:45:36.919Z,0
2017-05-18T00:45:46.433Z,0
2017-05-18T00:45:56.528Z,0
2017-05-18T00:46:06.623Z,0
2017-05-18T00:46:16.431Z,12.5
2017-05-18T00:46:26.520Z,0
2017-05-18T00:46:36.610Z,0
2017-05-18T00:46:46.705Z,0
2017-05-18T00:46:56.796Z,0
2017-05-18T00:47:06.888Z,0.39
2017-05-18T00:47:16.692Z,0
2017-05-18T00:47:26.206Z,0
2017-05-18T00:47:36.301Z,0
2017-05-18T00:47:46.400Z,0
2017-05-18T00:47:56.502Z,0
2017-05-18T00:48:06.314Z,0
2017-05-18T00:48:16.407Z,0
2017-05-18T00:48:26.516Z,0
2017-05-18T00:48:36.612Z,100
2017-05-18T00:48:46.774Z,0
2017-05-18T00:48:56.874Z,0
2017-05-18T00:49:06.971Z,0
2017-05-18T00:49:17.064Z,0
2017-05-18T00:49:27.165Z,0
2017-05-18T00:49:36.686Z,0
2017-05-18T00:49:46.780Z,0
2017-05-18T00:49:56.871Z,0
2017-05-18T00:50:07.013Z,0
2017-05-18T00:50:16.816Z,0
2017-05-18T00:50:26.909Z,0
2017-05-18T00:50:36.707Z,0
2017-05-18T00:50:46.802Z,0
2017-05-18T00:50:56.889Z,0
2017-05-18T00:51:06.986Z,0
2017-05-18T00:51:17.079Z,0
2017-05-18T00:51:27.176Z,0
2017-05-18T00:51:37.265Z,0
2017-05-18T00:51:47.359Z,0
2017-05-18T00:51:57.453Z,0
2017-05-18T00:52:07.259Z,0
2017-05-18T00:52:17.346Z,0
2017-05-18T00:52:27.439Z,0
2017-05-18T00:52:37.532Z,0
2017-05-18T00:52:47.628Z,0
2017-05-18T00:52:57.729Z,0
2017-05-18T00:53:07.817Z,0
2017-05-18T00:53:17.906Z,0
2017-05-18T00:53:27.998Z,0
2017-05-18T00:53:38.093Z,0
2017-05-18T00:53:48.187Z,0
2017-05-18T00:53:58.280Z,0
2017-05-18T00:54:08.386Z,0
2017-05-18T00:54:18.190Z,0.05
2017-05-18T00:54:28.285Z,0
2017-05-18T00:54:38.379Z,0
2017-05-18T00:54:48.474Z,0
2017-05-18T00:54:58.582Z,0
2017-05-18T00:55:08.444Z,0
2017-05-18T00:55:18.540Z,0
2017-05-18T00:55:28.627Z,0
2017-05-18T00:55:38.486Z,0
2017-05-18T00:55:48.576Z,0
2017-05-18T00:55:58.668Z,0
2017-05-18T00:56:08.764Z,0
2017-05-18T00:56:18.297Z,50
2017-05-18T00:56:28.389Z,0
2017-05-18T00:56:38.500Z,0
2017-05-18T00:56:48.617Z,0
2017-05-18T00:56:58.709Z,3.12
2017-05-18T00:57:08.513Z,0
2017-05-18T00:57:18.604Z,0
2017-05-18T00:57:28.702Z,0
2017-05-18T00:57:38.797Z,0
2017-05-18T00:57:48.889Z,0
2017-05-18T00:57:58.692Z,0
2017-05-18T00:58:08.501Z,0
2017-05-18T00:58:18.024Z,0
2017-05-18T00:58:28.113Z,0
2017-05-18T00:58:37.920Z,0
2017-05-18T00:58:48.070Z,0
2017-05-18T00:58:58.165Z,0
2017-05-18T00:59:07.969Z,0
2017-05-18T00:59:17.781Z,0
2017-05-18T00:59:27.879Z,0
2017-05-18T00:59:37.987Z,0
2017-05-18T00:59:48.085Z,0
2017-05-18T00:59:58.234Z,0
2017-05-18T01:00:08.050Z,0
2017-05-18T01:00:18.138Z,0
2017-05-18T01:00:28.231Z,3.12
2017-05-18T01:00:38.336Z,0.78
2017-05-18T01:00:48.427Z,0
2017-05-18T01:00:58.235Z,0.01
2017-05-18T01:01:08.336Z,0
2017-05-18T01:01:18.143Z,0.39
2017-05-18T01:01:28.237Z,0
2017-05-18T01:01:38.329Z,0
2017-05-18T01:01:48.425Z,0
2017-05-18T01:01:58.227Z,0
2017-05-18T01:02:08.336Z,0
2017-05-18T01:02:18.429Z,0
2017-05-18T01:02:28.517Z,0.39
2017-05-18T01:02:38.038Z,6.25
2017-05-18T01:02:48.139Z,0
2017-05-18T01:02:58.240Z,0
2017-05-18T01:03:08.337Z,0
2017-05-18T01:03:18.449Z,0.39
2017-05-18T01:03:28.541Z,0
2017-05-18T01:03:38.345Z,0
2017-05-18T01:03:48.158Z,0
2017-05-18T01:03:58.253Z,0
2017-05-18T01:04:08.344Z,0
2017-05-18T01:04:18.155Z,0
2017-05-18T01:04:28.252Z,0
2017-05-18T01:04:38.057Z,0
2017-05-18T01:04:48.152Z,0
2017-05-18T01:04:58.253Z,0
2017-05-18T01:05:08.362Z,0
2017-05-18T01:05:18.451Z,0
2017-05-18T01:05:28.303Z,0
2017-05-18T01:05:38.389Z,0
2017-05-18T01:05:48.478Z,0
2017-05-18T01:05:58.574Z,0
2017-05-18T01:06:08.663Z,0
2017-05-18T01:06:18.470Z,0
2017-05-18T01:06:27.989Z,0
2017-05-18T01:06:38.078Z,0
2017-05-18T01:06:48.168Z,0
2017-05-18T01:06:57.975Z,0
2017-05-18T01:07:08.068Z,0
2017-05-18T01:07:18.157Z,0
2017-05-18T01:07:27.673Z,0
2017-05-18T01:07:37.531Z,0
2017-05-18T01:07:47.626Z,0
2017-05-18T01:07:57.737Z,0.01
2017-05-18T01:08:07.832Z,0
2017-05-18T01:08:17.646Z,0
2017-05-18T01:08:27.750Z,0
2017-05-18T01:08:37.895Z,0
2017-05-18T01:08:47.985Z,0
2017-05-18T01:08:58.082Z,0
2017-05-18T01:09:08.182Z,0
2017-05-18T01:09:17.702Z,0
2017-05-18T01:09:27.794Z,0
2017-05-18T01:09:37.885Z,0
2017-05-18T01:09:47.981Z,0
2017-05-18T01:09:58.076Z,0
2017-05-18T01:10:07.929Z,0
2017-05-18T01:10:17.740Z,0
2017-05-18T01:10:27.829Z,0
2017-05-18T01:10:37.922Z,0
2017-05-18T01:10:48.060Z,0
2017-05-18T01:10:58.156Z,0
2017-05-18T01:11:07.964Z,0
2017-05-18T01:11:17.766Z,0
2017-05-18T01:11:27.852Z,0.1
2017-05-18T01:11:37.657Z,6.25
2017-05-18T01:11:47.750Z,0.01
2017-05-18T01:11:57.900Z,0
2017-05-18T01:12:07.415Z,1.56
2017-05-18T01:12:17.223Z,0
2017-05-18T01:12:27.319Z,0
2017-05-18T01:12:37.462Z,0
2017-05-18T01:12:47.574Z,0
2017-05-18T01:12:57.672Z,0
2017-05-18T01:13:07.769Z,0
2017-05-18T01:13:17.574Z,0
2017-05-18T01:13:27.380Z,0
2017-05-18T01:13:37.480Z,0
2017-05-18T01:13:47.569Z,0
2017-05-18T01:13:57.664Z,0
2017-05-18T01:14:07.822Z,0
2017-05-18T01:14:17.624Z,0
2017-05-18T01:14:27.718Z,0
2017-05-18T01:14:37.806Z,1.56
2017-05-18T01:14:47.955Z,0
2017-05-18T01:14:57.767Z,0
2017-05-18T01:15:07.868Z,0
2017-05-18T01:15:17.673Z,1.56
2017-05-18T01:15:27.771Z,0
2017-05-18T01:15:37.859Z,0
2017-05-18T01:15:47.951Z,0
2017-05-18T01:15:58.050Z,0
2017-05-18T01:16:08.142Z,0
2017-05-18T01:16:17.946Z,0
2017-05-18T01:16:28.046Z,0
2017-05-18T01:16:37.854Z,0
2017-05-18T01:16:47.956Z,0
2017-05-18T01:16:58.049Z,100
2017-05-18T01:17:08.181Z,0
2017-05-18T01:17:18.301Z,0
2017-05-18T01:17:28.110Z,0
2017-05-18T01:17:38.196Z,0
2017-05-18T01:17:48.297Z,0
2017-05-18T01:17:58.404Z,0
2017-05-18T01:18:08.513Z,0
2017-05-18T01:18:18.607Z,0
2017-05-18T01:18:28.705Z,0
2017-05-18T01:18:38.521Z,0
2017-05-18T01:18:48.626Z,0
2017-05-18T01:18:58.720Z,0
2017-05-18T01:19:08.815Z,0
2017-05-18T01:19:18.914Z,0
2017-05-18T01:19:28.727Z,100
2017-05-18T01:19:38.534Z,0
2017-05-18T01:19:48.680Z,0
2017-05-18T01:19:58.776Z,0
2017-05-18T01:20:08.584Z,0
2017-05-18T01:20:18.679Z,0
2017-05-18T01:20:28.798Z,0
2017-05-18T01:20:38.312Z,0
2017-05-18T01:20:48.411Z,0
2017-05-18T01:20:58.501Z,0
2017-05-18T01:21:08.607Z,0
2017-05-18T01:21:18.698Z,0
2017-05-18T01:21:28.799Z,0
2017-05-18T01:21:38.887Z,0
2017-05-18T01:21:48.982Z,0
2017-05-18T01:21:59.071Z,0.19
2017-05-18T01:22:09.166Z,0
2017-05-18T01:22:19.262Z,0
2017-05-18T01:22:29.355Z,0
2017-05-18T01:22:39.451Z,0.39
2017-05-18T01:22:49.551Z,0
2017-05-18T01:22:59.412Z,0
2017-05-18T01:23:09.512Z,0
2017-05-18T01:23:19.606Z,0.1
2017-05-18T01:23:29.704Z,0.02
2017-05-18T01:23:39.804Z,0
2017-05-18T01:23:49.905Z,0
2017-05-18T01:24:00.010Z,0
2017-05-18T01:24:10.100Z,0
2017-05-18T01:24:19.909Z,0
2017-05-18T01:24:30.003Z,0
2017-05-18T01:24:40.094Z,0
2017-05-18T01:24:50.184Z,0
2017-05-18T01:25:00.278Z,0
2017-05-18T01:25:10.372Z,0
2017-05-18T01:25:20.468Z,0
2017-05-18T01:25:30.270Z,0
2017-05-18T01:25:40.362Z,0
2017-05-18T01:25:50.452Z,0
2017-05-18T01:26:00.546Z,0
2017-05-18T01:26:10.061Z,100
2017-05-18T01:26:20.158Z,0.39
2017-05-18T01:26:30.250Z,0
2017-05-18T01:26:40.340Z,100
2017-05-18T01:26:50.433Z,99.99
2017-05-18T01:27:00.534Z,99.99
2017-05-18T01:27:10.631Z,99.99
2017-05-18T01:27:20.727Z,99.99
2017-05-18T01:27:30.532Z,0
2017-05-18T01:27:40.055Z,0
2017-05-18T01:27:49.862Z,99.99
2017-05-18T01:27:59.963Z,99.99
2017-05-18T01:28:10.060Z,99.99
2017-05-18T01:28:20.166Z,99.99
2017-05-18T01:28:29.977Z,99.99
2017-05-18T01:28:40.071Z,99.99
2017-05-18T01:28:50.171Z,99.99
2017-05-18T01:29:00.263Z,99.99
2017-05-18T01:29:10.067Z,99.99
2017-05-18T01:29:19.587Z,99.99
2017-05-18T01:29:29.682Z,99.99
2017-05-18T01:29:39.773Z,99.99
2017-05-18T01:29:49.582Z,99.99
2017-05-18T01:29:59.679Z,99.99
2017-05-18T01:30:09.482Z,99.99
2017-05-18T01:30:19.285Z,99.99
2017-05-18T01:30:29.094Z,99.99
2017-05-18T01:30:38.902Z,99.99
2017-05-18T01:30:48.999Z,99.99
2017-05-18T01:30:59.095Z,99.99
2017-05-18T01:31:09.181Z,99.99
2017-05-18T01:31:18.985Z,99.99
2017-05-18T01:31:28.787Z,99.99
2017-05-18T01:31:38.879Z,99.99
2017-05-18T01:31:48.975Z,99.99
2017-05-18T01:31:59.065Z,99.99
2017-05-18T01:32:08.876Z,99.99
2017-05-18T01:32:19.001Z,99.99
2017-05-18T01:32:28.806Z,99.99
2017-05-18T01:32:38.912Z,99.99
2017-05-18T01:32:49.006Z,99.99
2017-05-18T01:32:59.098Z,99.99
2017-05-18T01:33:09.190Z,99.99
2017-05-18T01:33:19.278Z,99.99
2017-05-18T01:33:29.372Z,99.99
2017-05-18T01:33:39.470Z,99.99
2017-05-18T01:33:49.571Z,99.99
2017-05-18T01:33:59.667Z,99.99
2017-05-18T01:34:09.474Z,99.99
2017-05-18T01:34:19.563Z,99.99
2017-05-18T01:34:29.662Z,99.99
2017-05-18T01:34:39.471Z,99.99
2017-05-18T01:34:49.288Z,99.99
2017-05-18T01:34:59.391Z,99.99
2017-05-18T01:35:09.488Z,99.99
2017-05-18T01:35:19.295Z,99.99
2017-05-18T01:35:29.385Z,99.99
2017-05-18T01:35:38.901Z,99.99
2017-05-18T01:35:48.995Z,99.99
2017-05-18T01:35:59.144Z,99.99
2017-05-18T01:36:08.946Z,99.99
2017-05-18T01:36:19.037Z,99.99
2017-05-18T01:36:29.129Z,0
2017-05-18T01:36:38.944Z,99.99
2017-05-18T01:36:49.035Z,99.99
2017-05-18T01:36:59.131Z,99.99
2017-05-18T01:37:09.224Z,99.99
2017-05-18T01:37:19.318Z,99.99
2017-05-18T01:37:29.130Z,99.99
2017-05-18T01:37:39.228Z,99.99
2017-05-18T01:37:49.318Z,99.99
2017-05-18T01:37:59.416Z,99.99
2017-05-18T01:38:09.507Z,99.99
2017-05-18T01:38:19.357Z,99.99
2017-05-18T01:38:29.452Z,99.99
2017-05-18T01:38:38.979Z,99.99
2017-05-18T01:38:49.072Z,99.99
2017-05-18T01:38:58.880Z,99.99
2017-05-18T01:39:08.978Z,99.99
2017-05-18T01:39:19.073Z,99.99
2017-05-18T01:39:29.175Z,99.99
2017-05-18T01:39:39.266Z,99.99
2017-05-18T01:39:49.361Z,99.99
2017-05-18T01:39:59.454Z,99.99
2017-05-18T01:40:09.546Z,99.99
2017-05-18T01:40:19.396Z,99.99
2017-05-18T01:40:29.204Z,99.99
2017-05-18T01:40:39.293Z,99.99
2017-05-18T01:40:49.387Z,99.99
2017-05-18T01:40:59.482Z,99.99
2017-05-18T01:41:09.576Z,99.99
2017-05-18T01:41:19.384Z,99.99
2017-05-18T01:41:29.481Z,99.99
2017-05-18T01:41:39.577Z,99.99
2017-05-18T01:41:49.665Z,99.99
2017-05-18T01:41:59.758Z,99.99
2017-05-18T01:42:09.568Z,99.99
2017-05-18T01:42:19.667Z,99.99
2017-05-18T01:42:29.758Z,99.99
2017-05-18T01:42:39.861Z,99.99
2017-05-18T01:42:49.961Z,99.99
2017-05-18T01:43:00.061Z,99.99
2017-05-18T01:43:10.154Z,99.99
2017-05-18T01:43:20.248Z,99.99
2017-05-18T01:43:30.341Z,99.99
2017-05-18T01:43:40.437Z,99.99
2017-05-18T01:43:50.529Z,99.99
2017-05-18T01:44:00.340Z,99.99
2017-05-18T01:44:10.440Z,99.99
2017-05-18T01:44:19.954Z,99.99
2017-05-18T01:44:30.056Z,99.99
2017-05-18T01:44:40.147Z,99.99
2017-05-18T01:44:50.242Z,99.99
2017-05-18T01:45:00.339Z,99.99
2017-05-18T01:45:10.145Z,99.99
2017-05-18T01:45:19.964Z,99.99
2017-05-18T01:45:30.057Z,99.99
2017-05-18T01:45:39.862Z,99.99
2017-05-18T01:45:49.965Z,99.99
2017-05-18T01:45:59.767Z,99.99
2017-05-18T01:46:09.577Z,99.99
2017-05-18T01:46:19.438Z,99.99
2017-05-18T01:46:29.536Z,99.99
2017-05-18T01:46:39.634Z,99.99
2017-05-18T01:46:49.731Z,99.99
2017-05-18T01:46:59.832Z,99.99
2017-05-18T01:47:09.923Z,99.99
2017-05-18T01:47:20.020Z,99.99
2017-05-18T01:47:30.117Z,99.99
2017-05-18T01:47:39.920Z,99.99
2017-05-18T01:47:49.729Z,99.99
2017-05-18T01:47:59.818Z,99.99
2017-05-18T01:48:09.961Z,99.99
2017-05-18T01:48:20.070Z,99.99
2017-05-18T01:48:30.164Z,99.99
2017-05-18T01:48:40.262Z,99.99
2017-05-18T01:48:50.357Z,99.99
2017-05-18T01:49:00.447Z,99.99
2017-05-18T01:49:10.251Z,99.99
2017-05-18T01:49:20.058Z,99.99
2017-05-18T01:49:30.153Z,99.99
2017-05-18T01:49:40.249Z,99.99
2017-05-18T01:49:50.347Z,99.99
2017-05-18T01:50:00.451Z,99.99
2017-05-18T01:50:10.538Z,99.99
2017-05-18T01:50:20.635Z,99.99
2017-05-18T01:50:30.722Z,99.99
2017-05-18T01:50:40.810Z,99.99
2017-05-18T01:50:50.905Z,99.99
2017-05-18T01:51:01.002Z,99.99
2017-05-18T01:51:10.808Z,99.99
2017-05-18T01:51:20.906Z,99.99
2017-05-18T01:51:30.995Z,99.99
2017-05-18T01:51:40.805Z,99.99
2017-05-18T01:51:50.898Z,99.99
2017-05-18T01:52:00.992Z,99.99
2017-05-18T01:52:11.088Z,99.99
2017-05-18T01:52:20.899Z,99.99
2017-05-18T01:52:30.994Z,99.99
2017-05-18T01:52:40.803Z,0
2017-05-18T01:52:50.898Z,0
2017-05-18T01:53:01.002Z,0
2017-05-18T01:53:11.098Z,0
2017-05-18T01:53:20.963Z,0
2017-05-18T01:53:31.060Z,0
2017-05-18T01:53:40.870Z,0
2017-05-18T01:53:50.975Z,0
2017-05-18T01:54:01.074Z,0
2017-05-18T01:54:11.171Z,0
2017-05-18T01:54:21.263Z,0
2017-05-18T01:54:31.072Z,0
2017-05-18T01:54:40.874Z,99.99
2017-05-18T01:54:50.999Z,29.03
2017-05-18T01:55:00.821Z,99.99
2017-05-18T01:55:10.049Z,0
2017-05-18T01:55:20.143Z,0
2017-05-18T01:55:30.232Z,0
2017-05-18T01:55:40.031Z,0
2017-05-18T01:55:50.123Z,0
2017-05-18T01:56:00.214Z,0.1
2017-05-18T01:56:10.311Z,0
2017-05-18T01:56:20.402Z,0
2017-05-18T01:56:30.491Z,0
2017-05-18T01:56:40.292Z,3.12
2017-05-18T01:56:50.388Z,0
2017-05-18T01:57:00.201Z,0
2017-05-18T01:57:10.005Z,0
2017-05-18T01:57:19.815Z,0
2017-05-18T01:57:29.908Z,0
2017-05-18T01:57:39.713Z,0
2017-05-18T01:57:49.804Z,0
2017-05-18T01:57:59.902Z,0
2017-05-18T01:58:09.710Z,0
2017-05-18T01:58:19.514Z,0
2017-05-18T01:58:29.323Z,0
2017-05-18T01:58:39.423Z,0
2017-05-18T01:58:49.520Z,0.39
2017-05-18T01:58:59.613Z,0
2017-05-18T01:59:09.715Z,0
2017-05-18T01:59:19.807Z,0
2017-05-18T01:59:29.900Z,0
2017-05-18T01:59:39.997Z,0
2017-05-18T01:59:50.093Z,0
2017-05-18T02:00:00.188Z,0
2017-05-18T02:00:10.000Z,1.56
2017-05-18T02:00:19.802Z,0
2017-05-18T02:00:29.893Z,0
2017-05-18T02:00:39.989Z,0.19
2017-05-18T02:00:50.087Z,0.78
2017-05-18T02:01:00.184Z,0
2017-05-18T02:01:09.988Z,0
2017-05-18T02:01:19.792Z,0
2017-05-18T02:01:29.885Z,0
2017-05-18T02:01:39.689Z,0
2017-05-18T02:01:49.777Z,0
2017-05-18T02:01:59.866Z,0
2017-05-18T02:02:09.956Z,0
2017-05-18T02:02:19.757Z,0
2017-05-18T02:02:29.859Z,0
2017-05-18T02:02:39.954Z,0
2017-05-18T02:02:50.049Z,0
2017-05-18T02:03:00.176Z,0
2017-05-18T02:03:10.274Z,0
2017-05-18T02:03:20.374Z,0
2017-05-18T02:03:30.473Z,0
2017-05-18T02:03:40.568Z,0
2017-05-18T02:03:50.662Z,0
2017-05-18T02:04:00.749Z,0
2017-05-18T02:04:10.559Z,0
2017-05-18T02:04:20.659Z,0.1
2017-05-18T02:04:30.756Z,0
2017-05-18T02:04:40.859Z,0
2017-05-18T02:04:50.961Z,0
2017-05-18T02:05:01.056Z,0
2017-05-18T02:05:10.857Z,0
2017-05-18T02:05:20.953Z,0
2017-05-18T02:05:31.048Z,0
2017-05-18T02:05:41.138Z,0
2017-05-18T02:05:50.942Z,0
2017-05-18T02:06:01.031Z,0
2017-05-18T02:06:11.182Z,0
2017-05-18T02:06:21.273Z,0
2017-05-18T02:06:31.364Z,0.39
2017-05-18T02:06:41.168Z,0
2017-05-18T02:06:51.259Z,0
2017-05-18T02:07:01.356Z,0
2017-05-18T02:07:11.447Z,0
2017-05-18T02:07:21.253Z,0
2017-05-18T02:07:31.340Z,0
2017-05-18T02:07:40.854Z,0.39
2017-05-18T02:07:50.946Z,0
2017-05-18T02:08:01.046Z,0
2017-05-18T02:08:10.847Z,0
2017-05-18T02:08:20.654Z,0
2017-05-18T02:08:30.755Z,0
2017-05-18T02:08:40.851Z,0
2017-05-18T02:08:50.946Z,0
2017-05-18T02:09:01.045Z,0
2017-05-18T02:09:10.851Z,0
2017-05-18T02:09:20.945Z,0
2017-05-18T02:09:30.472Z,0
2017-05-18T02:09:40.566Z,0
2017-05-18T02:09:50.680Z,0
2017-05-18T02:10:00.777Z,25
2017-05-18T02:10:10.587Z,0
2017-05-18T02:10:20.672Z,6.25
2017-05-18T02:10:30.472Z,0
2017-05-18T02:10:40.564Z,0
2017-05-18T02:10:50.655Z,0
2017-05-18T02:11:00.752Z,0
2017-05-18T02:11:10.842Z,0
2017-05-18T02:11:20.937Z,0
2017-05-18T02:11:30.764Z,0.39
2017-05-18T02:11:40.917Z,0
2017-05-18T02:11:51.011Z,0
2017-05-18T02:12:01.107Z,0
2017-05-18T02:12:10.337Z,0
2017-05-18T02:12:20.428Z,0
2017-05-18T02:12:30.512Z,0
2017-05-18T02:12:40.606Z,0
2017-05-18T02:12:50.703Z,0
2017-05-18T02:13:00.514Z,100
2017-05-18T02:13:10.319Z,0
2017-05-18T02:13:20.417Z,0
2017-05-18T02:13:30.530Z,0
2017-05-18T02:13:40.622Z,0
2017-05-18T02:13:50.716Z,0
2017-05-18T02:14:00.520Z,0
2017-05-18T02:14:10.329Z,0
2017-05-18T02:14:20.426Z,0
2017-05-18T02:14:30.235Z,50
2017-05-18T02:14:40.327Z,0
2017-05-18T02:14:50.421Z,0
2017-05-18T02:15:00.000Z,0
2017-05-18T02:15:09.804Z,0
2017-05-18T02:15:19.609Z,0
2017-05-18T02:15:29.416Z,0
2017-05-18T02:15:39.219Z,0
2017-05-18T02:15:49.315Z,0
2017-05-18T02:15:59.413Z,0
2017-05-18T02:16:09.221Z,0
2017-05-18T02:16:19.028Z,0.39
2017-05-18T02:16:29.126Z,0
2017-05-18T02:16:38.926Z,0
2017-05-18T02:16:49.022Z,0
2017-05-18T02:16:58.832Z,0
2017-05-18T02:17:08.930Z,0
2017-05-18T02:17:19.020Z,3.12
2017-05-18T02:17:28.828Z,0
2017-05-18T02:17:38.344Z,0
2017-05-18T02:17:48.438Z,0
2017-05-18T02:17:58.251Z,0
2017-05-18T02:18:08.348Z,0
2017-05-18T02:18:18.446Z,0
2017-05-18T02:18:28.260Z,0
2017-05-18T02:18:38.355Z,0.78
2017-05-18T02:18:48.453Z,0
2017-05-18T02:18:58.552Z,0
2017-05-18T02:19:08.643Z,0
2017-05-18T02:19:18.740Z,0
2017-05-18T02:19:28.546Z,0
2017-05-18T02:19:38.349Z,0
2017-05-18T02:19:48.438Z,0
2017-05-18T02:19:58.592Z,0
2017-05-18T02:20:08.119Z,0
2017-05-18T02:20:18.210Z,0
2017-05-18T02:20:28.296Z,0
2017-05-18T02:20:38.389Z,0
2017-05-18T02:20:48.483Z,0
2017-05-18T02:20:58.580Z,0
2017-05-18T02:21:08.684Z,0
2017-05-18T02:21:18.203Z,0
2017-05-18T02:21:28.296Z,0
2017-05-18T02:21:38.443Z,0
2017-05-18T02:21:48.539Z,0
2017-05-18T02:21:58.632Z,0.39
2017-05-18T02:22:08.439Z,0.02
2017-05-18T02:22:18.536Z,0
2017-05-18T02:22:28.627Z,0
2017-05-18T02:22:38.437Z,0
2017-05-18T02:22:48.536Z,0